Time;durP1;ratioP1;P1;durP2;ratioP2;P2;SDS_P1;SDS_P2;PMS_P1;PMS_P2;Temp;Humidity;BMP_temperature;BMP_pressure;BME280_temperature;BME280_humidity;BME280_pressure;Samples;Min_cycle;Max_cycle;Signal;HPM_P1;HPM_P2
2021/07/13 00:01:10;;;;;;;74.77;70.87;;;;;;;;;;5061169;28;20484;-67
2021/07/13 00:03:38;;;;;;;79.30;75.47;;;;;;;;;;5055716;28;20443;-67
2021/07/13 00:06:05;;;;;;;80.93;77.03;;;;;;;;;;5062251;28;20991;-67
2021/07/13 00:08:32;;;;;;;80.20;76.40;;;;;;;;;;5074979;28;20457;-67
2021/07/13 00:10:59;;;;;;;84.00;80.10;;;;;;;;;;5069951;28;20486;-67
2021/07/13 00:13:26;;;;;;;86.10;82.10;;;;;;;;;;5057968;28;20491;-67
2021/07/13 00:15:53;;;;;;;89.13;84.93;;;;;;;;;;5051169;28;20474;-67
2021/07/13 00:18:22;;;;;;;87.87;83.47;;;;;;;;;;5075156;28;20427;-67
2021/07/13 00:20:49;;;;;;;89.13;85.07;;;;;;;;;;5071504;28;20493;-67
2021/07/13 00:23:16;;;;;;;93.50;89.20;;;;;;;;;;5074908;28;20446;-66
2021/07/13 00:25:43;;;;;;;94.80;90.40;;;;;;;;;;5066166;28;20459;-66
2021/07/13 00:28:10;;;;;;;94.37;90.07;;;;;;;;;;5056112;28;20469;-67
2021/07/13 00:30:38;;;;;;;98.83;94.43;;;;;;;;;;5054979;28;20500;-67
2021/07/13 00:33:05;;;;;;;97.50;93.00;;;;;;;;;;5056327;28;20489;-67
2021/07/13 00:35:33;;;;;;;98.27;93.87;;;;;;;;;;5057754;28;20459;-65
2021/07/13 00:38:00;;;;;;;101.20;96.50;;;;;;;;;;5054593;28;20443;-66
2021/07/13 00:40:27;;;;;;;99.87;95.30;;;;;;;;;;5056890;28;20997;-65
2021/07/13 00:42:55;;;;;;;101.67;96.90;;;;;;;;;;5054667;28;20447;-66
2021/07/13 00:45:22;;;;;;;94.70;90.30;;;;;;;;;;5060636;28;20465;-66
2021/07/13 00:47:50;;;;;;;98.10;93.40;;;;;;;;;;5072759;28;20446;-66
2021/07/13 00:50:17;;;;;;;93.37;89.07;;;;;;;;;;5057050;28;20484;-66
2021/07/13 00:52:46;;;;;;;99.13;94.67;;;;;;;;;;5053978;28;20993;-67
2021/07/13 00:55:14;;;;;;;99.13;94.37;;;;;;;;;;5064589;28;20474;-66
2021/07/13 00:57:41;;;;;;;97.83;93.33;;;;;;;;;;5070195;28;20549;-65
2021/07/13 01:00:11;;;;;;;101.30;96.63;;;;;;;;;;5057338;28;20475;-65
2021/07/13 01:02:38;;;;;;;102.80;98.10;;;;;;;;;;5056415;28;20695;-67
2021/07/13 01:05:09;;;;;;;108.43;103.37;;;;;;;;;;5058067;28;20456;-67
2021/07/13 01:07:38;;;;;;;105.50;100.63;;;;;;;;;;5053891;28;20468;-68
2021/07/13 01:10:10;;;;;;;104.83;100.07;;;;;;;;;;5053000;28;20475;-67
2021/07/13 01:12:42;;;;;;;103.17;97.50;;;;;;;;;;5057695;28;20482;-68
2021/07/13 01:15:10;;;;;;;98.47;93.77;;;;;;;;;;5073318;28;20462;-68
2021/07/13 01:17:39;;;;;;;96.13;91.87;;;;;;;;;;5063974;28;20482;-68
2021/07/13 01:20:20;;;;;;;98.53;94.10;;;;;;;;;;5066790;28;20491;-67
2021/07/13 01:22:51;;;;;;;99.03;94.53;;;;;;;;;;5071954;28;20461;-68
2021/07/13 01:25:26;;;;;;;100.10;95.40;;;;;;;;;;5072319;28;20471;-68
2021/07/13 01:28:03;;;;;;;98.70;93.70;;;;;;;;;;5068129;28;20480;-67
2021/07/13 01:30:32;;;;;;;95.70;91.17;;;;;;;;;;5073226;28;20478;-65
2021/07/13 01:33:00;;;;;;;105.33;100.47;;;;;;;;;;5070858;28;20497;-66
2021/07/13 01:35:30;;;;;;;101.87;97.10;;;;;;;;;;5062367;28;20468;-68
2021/07/13 01:37:59;;;;;;;110.00;105.00;;;;;;;;;;5052643;28;20464;-65
2021/07/13 01:40:28;;;;;;;109.10;104.23;;;;;;;;;;5053351;28;20464;-66
2021/07/13 01:42:56;;;;;;;109.77;104.77;;;;;;;;;;5056008;28;20469;-65
2021/07/13 01:45:24;;;;;;;113.77;108.67;;;;;;;;;;5053547;28;20447;-66
2021/07/13 01:47:52;;;;;;;110.60;105.70;;;;;;;;;;5047933;28;20469;-66
2021/07/13 01:50:19;;;;;;;105.40;100.70;;;;;;;;;;5033245;28;20487;-66
2021/07/13 01:52:46;;;;;;;106.43;101.73;;;;;;;;;;5053914;28;20488;-68
2021/07/13 01:55:15;;;;;;;106.17;101.27;;;;;;;;;;5053321;28;20939;-66
2021/07/13 01:57:42;;;;;;;106.20;101.50;;;;;;;;;;5053773;28;20452;-65
2021/07/13 02:00:10;;;;;;;106.03;101.23;;;;;;;;;;5054817;28;20467;-68
2021/07/13 02:02:40;;;;;;;95.53;91.13;;;;;;;;;;5064438;28;20876;-66
2021/07/13 02:05:08;;;;;;;99.10;94.50;;;;;;;;;;5052888;28;20448;-66
2021/07/13 02:07:37;;;;;;;96.87;92.27;;;;;;;;;;5070807;28;20462;-66
2021/07/13 02:10:05;;;;;;;95.10;90.70;;;;;;;;;;5072953;28;20978;-66
2021/07/13 02:12:34;;;;;;;95.30;91.00;;;;;;;;;;5068594;28;21120;-67
2021/07/13 02:15:01;;;;;;;97.10;92.67;;;;;;;;;;5071841;28;20463;-67
2021/07/13 02:17:30;;;;;;;98.40;93.80;;;;;;;;;;5070171;28;20462;-66
2021/07/13 02:19:58;;;;;;;92.87;88.67;;;;;;;;;;5055181;28;20558;-67
2021/07/13 02:22:25;;;;;;;92.63;88.23;;;;;;;;;;5056957;28;21004;-66
2021/07/13 02:24:53;;;;;;;97.10;92.70;;;;;;;;;;5072744;28;20453;-68
2021/07/13 02:27:20;;;;;;;95.93;91.67;;;;;;;;;;5072608;28;20466;-67
2021/07/13 02:29:51;;;;;;;96.03;91.63;;;;;;;;;;5073052;28;20520;-67
2021/07/13 02:32:21;;;;;;;93.77;89.17;;;;;;;;;;5072384;28;20463;-67
2021/07/13 02:34:50;;;;;;;92.37;88.00;;;;;;;;;;5052995;28;20942;-67
2021/07/13 02:37:20;;;;;;;92.10;87.90;;;;;;;;;;5071476;28;20464;-67
2021/07/13 02:39:47;;;;;;;94.93;90.63;;;;;;;;;;5052949;28;20533;-66
2021/07/13 02:42:14;;;;;;;93.40;89.00;;;;;;;;;;5051737;28;20464;-66
2021/07/13 02:44:42;;;;;;;87.23;83.03;;;;;;;;;;5052516;28;20454;-66
2021/07/13 02:47:11;;;;;;;90.63;86.53;;;;;;;;;;5060371;28;20467;-66
2021/07/13 02:49:44;;;;;;;90.63;86.33;;;;;;;;;;5052501;28;20474;-68
2021/07/13 02:52:12;;;;;;;92.00;87.63;;;;;;;;;;5055512;28;20475;-68
2021/07/13 02:54:41;;;;;;;94.33;89.93;;;;;;;;;;5062975;28;20486;-68
2021/07/13 02:57:09;;;;;;;87.87;83.73;;;;;;;;;;5071334;28;20471;-67
2021/07/13 02:59:37;;;;;;;94.87;90.30;;;;;;;;;;5061150;28;20473;-68
2021/07/13 03:02:05;;;;;;;95.57;91.07;;;;;;;;;;5069910;28;20490;-68
2021/07/13 03:04:32;;;;;;;97.77;93.07;;;;;;;;;;5072396;28;20449;-67
2021/07/13 03:07:00;;;;;;;97.83;93.23;;;;;;;;;;5070149;28;20991;-69
2021/07/13 03:09:27;;;;;;;103.70;98.70;;;;;;;;;;5071826;28;20454;-69
2021/07/13 03:11:55;;;;;;;105.70;100.60;;;;;;;;;;5051359;28;20468;-69
2021/07/13 03:14:23;;;;;;;105.07;99.87;;;;;;;;;;5070649;28;20490;-66
2021/07/13 03:16:51;;;;;;;102.27;97.47;;;;;;;;;;5070160;28;20873;-66
2021/07/13 03:19:18;;;;;;;100.43;95.83;;;;;;;;;;5071855;28;20508;-66
2021/07/13 03:21:49;;;;;;;110.00;104.83;;;;;;;;;;5070126;28;20467;-68
2021/07/13 03:24:17;;;;;;;113.03;107.73;;;;;;;;;;5069166;28;20978;-65
2021/07/13 03:26:46;;;;;;;108.60;103.60;;;;;;;;;;5067976;28;20490;-68
2021/07/13 03:29:14;;;;;;;117.13;111.80;;;;;;;;;;5032073;28;20810;-66
2021/07/13 03:31:43;;;;;;;118.90;113.03;;;;;;;;;;5031574;28;20482;-68
2021/07/13 03:34:10;;;;;;;121.03;115.50;;;;;;;;;;5059154;28;20484;-66
2021/07/13 03:36:38;;;;;;;119.40;113.43;;;;;;;;;;5068852;28;20476;-67
2021/07/13 03:39:06;;;;;;;121.30;115.50;;;;;;;;;;5070395;28;20447;-67
2021/07/13 03:41:34;;;;;;;127.97;122.17;;;;;;;;;;5054586;28;20479;-66
2021/07/13 03:44:01;;;;;;;131.17;125.13;;;;;;;;;;5052848;28;20452;-67
2021/07/13 03:46:33;;;;;;;131.67;125.77;;;;;;;;;;5065920;28;20462;-67
2021/07/13 03:49:00;;;;;;;125.97;120.03;;;;;;;;;;5058689;28;20814;-66
2021/07/13 03:51:36;;;;;;;126.30;120.30;;;;;;;;;;5065010;28;20836;-65
2021/07/13 03:54:04;;;;;;;134.53;128.43;;;;;;;;;;5071709;28;20471;-67
2021/07/13 03:56:31;;;;;;;133.33;127.23;;;;;;;;;;5067407;28;20949;-67
2021/07/13 03:58:59;;;;;;;131.83;125.63;;;;;;;;;;5071549;28;20450;-69
2021/07/13 04:01:26;;;;;;;132.97;126.97;;;;;;;;;;5069086;28;20493;-67
2021/07/13 04:03:54;;;;;;;132.70;126.50;;;;;;;;;;5071839;28;20451;-67
2021/07/13 04:06:22;;;;;;;131.00;124.90;;;;;;;;;;5057704;28;20468;-67
2021/07/13 04:08:49;;;;;;;122.57;116.67;;;;;;;;;;5051891;28;20448;-66
2021/07/13 04:11:16;;;;;;;123.13;117.33;;;;;;;;;;5062679;28;20493;-67
2021/07/13 04:13:43;;;;;;;120.27;114.10;;;;;;;;;;5069300;28;20478;-65
2021/07/13 04:16:10;;;;;;;128.10;122.00;;;;;;;;;;5060308;28;20460;-66
2021/07/13 04:18:37;;;;;;;127.33;121.33;;;;;;;;;;5065709;28;20473;-66
2021/07/13 04:21:06;;;;;;;130.63;124.53;;;;;;;;;;5061777;28;20476;-67
2021/07/13 04:23:33;;;;;;;131.43;125.23;;;;;;;;;;5062361;28;20459;-67
2021/07/13 04:26:01;;;;;;;116.77;111.17;;;;;;;;;;5065781;28;20493;-67
2021/07/13 04:28:30;;;;;;;113.30;106.83;;;;;;;;;;5071369;28;20442;-67
2021/07/13 04:30:57;;;;;;;108.77;102.67;;;;;;;;;;5064780;28;20505;-67
2021/07/13 04:33:24;;;;;;;112.00;106.40;;;;;;;;;;5060115;22;20945;-66
2021/07/13 04:35:52;;;;;;;112.90;107.27;;;;;;;;;;5035384;28;20826;-69
2021/07/13 04:38:20;;;;;;;118.47;112.27;;;;;;;;;;5045748;28;20464;-66
2021/07/13 04:40:48;;;;;;;126.60;120.30;;;;;;;;;;5038583;28;21041;-65
2021/07/13 04:43:15;;;;;;;132.33;126.03;;;;;;;;;;5030532;28;20500;-65
2021/07/13 04:45:42;;;;;;;129.87;123.60;;;;;;;;;;5031296;28;20816;-65
2021/07/13 04:48:09;;;;;;;128.90;122.50;;;;;;;;;;5033462;28;21028;-65
2021/07/13 04:50:37;;;;;;;120.37;114.57;;;;;;;;;;5033025;28;20482;-65
2021/07/13 04:53:04;;;;;;;132.40;125.73;;;;;;;;;;5033872;28;21003;-66
2021/07/13 04:55:32;;;;;;;138.97;132.17;;;;;;;;;;5033581;28;20470;-64
2021/07/13 04:58:00;;;;;;;135.20;128.50;;;;;;;;;;5033972;28;20829;-64
2021/07/13 05:00:27;;;;;;;134.13;127.63;;;;;;;;;;5033531;28;20468;-65
2021/07/13 05:02:54;;;;;;;137.23;130.67;;;;;;;;;;5033239;28;20484;-66
2021/07/13 05:05:21;;;;;;;131.83;125.37;;;;;;;;;;5034220;28;20451;-66
2021/07/13 05:07:49;;;;;;;125.90;119.53;;;;;;;;;;5032795;28;20456;-66
2021/07/13 05:10:17;;;;;;;124.07;117.77;;;;;;;;;;5033246;28;20970;-68
2021/07/13 05:12:46;;;;;;;124.10;117.60;;;;;;;;;;5032531;28;20488;-66
2021/07/13 05:15:15;;;;;;;124.07;117.87;;;;;;;;;;5032875;28;20859;-68
2021/07/13 05:17:42;;;;;;;125.17;118.73;;;;;;;;;;5032694;28;20824;-66
2021/07/13 05:20:11;;;;;;;127.83;121.13;;;;;;;;;;5033405;28;20457;-73
2021/07/13 05:22:38;;;;;;;134.10;127.20;;;;;;;;;;5033288;28;20543;-66
2021/07/13 05:25:06;;;;;;;129.30;122.60;;;;;;;;;;5032716;28;20460;-68
2021/07/13 05:27:34;;;;;;;125.73;119.23;;;;;;;;;;5032932;28;20468;-66
2021/07/13 05:30:02;;;;;;;196.30;187.80;;;;;;;;;;5032898;28;20487;-67
2021/07/13 05:32:30;;;;;;;153.23;145.33;;;;;;;;;;5032890;28;20496;-69
2021/07/13 05:34:57;;;;;;;122.70;116.03;;;;;;;;;;5031468;28;20492;-67
2021/07/13 05:37:24;;;;;;;118.50;111.90;;;;;;;;;;5032186;28;20465;-67
2021/07/13 05:39:51;;;;;;;114.60;108.40;;;;;;;;;;5033635;28;20453;-66
2021/07/13 05:42:18;;;;;;;124.97;118.27;;;;;;;;;;5032057;28;20838;-66
2021/07/13 05:44:45;;;;;;;112.73;106.33;;;;;;;;;;5033447;28;20470;-66
2021/07/13 05:47:14;;;;;;;106.00;100.03;;;;;;;;;;5033286;28;20458;-65
2021/07/13 05:49:42;;;;;;;112.60;106.67;;;;;;;;;;5033669;28;20455;-65
2021/07/13 05:52:09;;;;;;;97.60;92.10;;;;;;;;;;5033275;28;20472;-66
2021/07/13 05:54:36;;;;;;;107.20;101.60;;;;;;;;;;5033088;28;20484;-66
2021/07/13 05:57:03;;;;;;;101.57;96.10;;;;;;;;;;5032057;28;20823;-65
2021/07/13 05:59:31;;;;;;;88.27;83.20;;;;;;;;;;5033265;28;20448;-66
2021/07/13 06:01:58;;;;;;;93.40;88.40;;;;;;;;;;5032728;28;20473;-67
2021/07/13 06:04:26;;;;;;;87.93;82.77;;;;;;;;;;5033143;28;20445;-66
2021/07/13 06:06:53;;;;;;;91.63;86.63;;;;;;;;;;5032856;28;20456;-66
2021/07/13 06:09:20;;;;;;;84.90;80.20;;;;;;;;;;5032092;28;20459;-66
2021/07/13 06:11:48;;;;;;;83.13;78.33;;;;;;;;;;5032017;28;20473;-66
2021/07/13 06:14:15;;;;;;;85.63;80.90;;;;;;;;;;5032934;28;20485;-66
2021/07/13 06:16:42;;;;;;;81.40;76.90;;;;;;;;;;5033009;28;20453;-66
2021/07/13 06:19:09;;;;;;;88.37;83.30;;;;;;;;;;5033113;28;20451;-66
2021/07/13 06:21:37;;;;;;;89.93;85.00;;;;;;;;;;5031903;28;20459;-69
2021/07/13 06:24:05;;;;;;;79.93;75.33;;;;;;;;;;5032882;28;20455;-66
2021/07/13 06:26:32;;;;;;;87.57;82.73;;;;;;;;;;5032466;28;20449;-65
2021/07/13 06:28:59;;;;;;;84.40;79.60;;;;;;;;;;5032984;28;20449;-66
2021/07/13 06:31:26;;;;;;;89.03;84.03;;;;;;;;;;5031983;28;20866;-65
2021/07/13 06:33:53;;;;;;;98.87;93.77;;;;;;;;;;5032311;28;20488;-66
2021/07/13 06:36:20;;;;;;;89.23;84.37;;;;;;;;;;5032206;28;20475;-68
2021/07/13 06:38:49;;;;;;;91.77;86.90;;;;;;;;;;5031086;28;20475;-66
2021/07/13 06:41:16;;;;;;;85.13;80.13;;;;;;;;;;5031387;28;20479;-66
2021/07/13 06:43:43;;;;;;;92.90;87.80;;;;;;;;;;5031926;28;20994;-66
2021/07/13 06:46:10;;;;;;;91.57;86.57;;;;;;;;;;5032484;28;20456;-66
2021/07/13 06:48:37;;;;;;;96.63;91.07;;;;;;;;;;5032014;28;20461;-66
2021/07/13 06:51:04;;;;;;;99.80;94.40;;;;;;;;;;5032394;28;20448;-66
2021/07/13 06:53:31;;;;;;;109.77;103.63;;;;;;;;;;5031461;28;20468;-67
2021/07/13 06:56:00;;;;;;;129.83;123.40;;;;;;;;;;5032011;28;20998;-68
2021/07/13 06:58:27;;;;;;;107.00;101.17;;;;;;;;;;5032240;28;20459;-67
2021/07/13 07:00:54;;;;;;;121.03;114.83;;;;;;;;;;5031740;28;20455;-68
2021/07/13 07:03:21;;;;;;;117.23;111.40;;;;;;;;;;5031820;28;20468;-69
2021/07/13 07:05:48;;;;;;;114.60;108.70;;;;;;;;;;5032078;28;20452;-67
2021/07/13 07:08:15;;;;;;;101.90;96.43;;;;;;;;;;5030818;28;20952;-67
2021/07/13 07:10:43;;;;;;;109.10;103.40;;;;;;;;;;5031536;28;20532;-67
2021/07/13 07:13:11;;;;;;;102.60;97.10;;;;;;;;;;5031927;28;20815;-67
2021/07/13 07:15:38;;;;;;;116.17;110.37;;;;;;;;;;5031591;28;20477;-67
2021/07/13 07:18:05;;;;;;;119.03;113.03;;;;;;;;;;5032117;28;20475;-67
2021/07/13 07:20:33;;;;;;;130.60;123.90;;;;;;;;;;5031742;28;20467;-68
2021/07/13 07:23:01;;;;;;;131.47;124.70;;;;;;;;;;5031394;28;20530;-67
2021/07/13 07:25:30;;;;;;;136.90;130.20;;;;;;;;;;5032051;28;20510;-68
2021/07/13 07:27:58;;;;;;;133.07;126.57;;;;;;;;;;5027197;28;20540;-68
2021/07/13 07:30:28;;;;;;;125.60;119.30;;;;;;;;;;5025205;28;20545;-67
2021/07/13 07:32:55;;;;;;;131.20;124.60;;;;;;;;;;5031193;28;20954;-67
2021/07/13 07:35:22;;;;;;;127.23;120.73;;;;;;;;;;5026220;28;20488;-67
2021/07/13 07:37:49;;;;;;;129.80;123.30;;;;;;;;;;5031253;28;20459;-67
2021/07/13 07:40:19;;;;;;;121.10;114.90;;;;;;;;;;5025885;28;20465;-67
2021/07/13 07:42:47;;;;;;;105.43;99.43;;;;;;;;;;5022125;28;20473;-67
2021/07/13 07:45:15;;;;;;;125.77;119.93;;;;;;;;;;5024552;28;20863;-67
2021/07/13 07:47:43;;;;;;;126.37;120.37;;;;;;;;;;5026661;28;20463;-64
2021/07/13 07:50:11;;;;;;;124.43;118.53;;;;;;;;;;5029952;28;20922;-69
2021/07/13 07:52:38;;;;;;;118.40;112.50;;;;;;;;;;5021122;28;20473;-66
2021/07/13 07:55:06;;;;;;;108.73;103.13;;;;;;;;;;5026612;28;20483;-67
2021/07/13 07:57:33;;;;;;;86.87;81.87;;;;;;;;;;5031006;28;20911;-66
2021/07/13 08:00:01;;;;;;;97.30;92.00;;;;;;;;;;5012103;28;20449;-68
2021/07/13 08:02:28;;;;;;;87.53;82.53;;;;;;;;;;5028547;28;20816;-66
2021/07/13 08:04:56;;;;;;;87.30;82.30;;;;;;;;;;5026555;28;20450;-67
2021/07/13 08:07:23;;;;;;;97.97;92.57;;;;;;;;;;5011687;28;20449;-66
2021/07/13 08:09:50;;;;;;;92.17;86.93;;;;;;;;;;5016758;28;20454;-66
2021/07/13 08:12:17;;;;;;;90.70;85.50;;;;;;;;;;5020511;28;21010;-67
2021/07/13 08:14:45;;;;;;;83.70;78.90;;;;;;;;;;5030143;28;20488;-67
2021/07/13 08:17:12;;;;;;;83.97;78.80;;;;;;;;;;5021373;28;20456;-68
2021/07/13 08:19:39;;;;;;;83.67;78.67;;;;;;;;;;5031093;28;20459;-68
2021/07/13 08:22:08;;;;;;;82.73;77.50;;;;;;;;;;5030730;28;20474;-66
2021/07/13 08:24:35;;;;;;;78.70;73.47;;;;;;;;;;5032204;28;20825;-68
2021/07/13 08:27:02;;;;;;;83.20;78.00;;;;;;;;;;5034740;28;20965;-66
2021/07/13 08:29:29;;;;;;;76.90;72.00;;;;;;;;;;5026080;28;20459;-69
2021/07/13 08:31:59;;;;;;;50.30;47.10;;;;;;;;;;5034395;28;21291;-66
2021/07/13 08:34:26;;;;;;;31.97;30.17;;;;;;;;;;5033748;28;20503;-68
2021/07/13 08:36:53;;;;;;;30.43;28.50;;;;;;;;;;5031042;28;20460;-66
2021/07/13 08:39:22;;;;;;;31.07;29.10;;;;;;;;;;5032922;28;21289;-66
2021/07/13 08:41:49;;;;;;;28.90;27.33;;;;;;;;;;5034007;28;20468;-65
2021/07/13 08:44:17;;;;;;;29.27;27.67;;;;;;;;;;5029922;28;20460;-68
2021/07/13 08:46:44;;;;;;;28.10;26.60;;;;;;;;;;5033841;28;20959;-67
2021/07/13 08:49:14;;;;;;;28.03;26.40;;;;;;;;;;5032859;28;20467;-69
2021/07/13 08:51:42;;;;;;;26.80;25.27;;;;;;;;;;5033876;28;20458;-68
2021/07/13 08:54:09;;;;;;;27.40;25.80;;;;;;;;;;5034310;28;20822;-70
2021/07/13 08:56:38;;;;;;;27.50;25.90;;;;;;;;;;5033401;28;21014;-68
2021/07/13 08:59:06;;;;;;;26.83;25.23;;;;;;;;;;5033503;28;20506;-68
2021/07/13 09:01:33;;;;;;;26.40;24.87;;;;;;;;;;5033527;28;20478;-68
2021/07/13 09:04:04;;;;;;;27.60;26.00;;;;;;;;;;5033881;28;20943;-68
2021/07/13 09:06:49;;;;;;;26.37;24.97;;;;;;;;;;5034218;28;20504;-67
2021/07/13 09:09:22;;;;;;;26.23;24.73;;;;;;;;;;5033201;28;20451;-68
2021/07/13 09:12:05;;;;;;;24.90;23.60;;;;;;;;;;5016095;28;20992;-68
2021/07/13 09:14:46;;;;;;;26.13;24.70;;;;;;;;;;5032800;28;20463;-68
2021/07/13 09:17:25;;;;;;;26.03;24.63;;;;;;;;;;5033249;28;20451;-68
2021/07/13 09:19:58;;;;;;;24.80;23.40;;;;;;;;;;5034266;28;20787;-69
2021/07/13 09:22:25;;;;;;;25.03;23.63;;;;;;;;;;5032625;28;20468;-68
2021/07/13 09:24:52;;;;;;;25.37;23.90;;;;;;;;;;5023044;28;20482;-68
2021/07/13 09:27:22;;;;;;;25.80;24.40;;;;;;;;;;5032863;28;20453;-65
2021/07/13 09:29:51;;;;;;;25.97;24.67;;;;;;;;;;5033367;28;20488;-66
2021/07/13 09:32:29;;;;;;;27.00;25.30;;;;;;;;;;5032836;28;20495;-65
2021/07/13 09:34:58;;;;;;;26.80;25.40;;;;;;;;;;5033105;28;20468;-64
2021/07/13 09:37:25;;;;;;;26.80;25.40;;;;;;;;;;5034095;28;20539;-64
2021/07/13 09:40:00;;;;;;;28.93;27.30;;;;;;;;;;5031590;28;20463;-66
2021/07/13 09:42:30;;;;;;;29.80;28.20;;;;;;;;;;5033042;28;20856;-66
2021/07/13 09:45:12;;;;;;;29.57;27.77;;;;;;;;;;5031966;28;20445;-66
2021/07/13 09:47:39;;;;;;;28.40;26.80;;;;;;;;;;5022017;28;20449;-66
2021/07/13 09:50:08;;;;;;;28.93;27.33;;;;;;;;;;5028999;28;20459;-66
2021/07/13 09:52:35;;;;;;;27.73;26.20;;;;;;;;;;5033254;28;20481;-69
2021/07/13 09:55:14;;;;;;;28.57;26.97;;;;;;;;;;5033324;28;20503;-66
2021/07/13 09:57:43;;;;;;;28.70;27.10;;;;;;;;;;5032686;28;20453;-70
2021/07/13 10:00:11;;;;;;;30.00;28.33;;;;;;;;;;5015007;28;20456;-67
2021/07/13 10:02:38;;;;;;;29.70;28.00;;;;;;;;;;5013513;28;20492;-66
2021/07/13 10:05:06;;;;;;;30.40;28.60;;;;;;;;;;5016153;28;21067;-67
2021/07/13 10:07:33;;;;;;;30.50;28.80;;;;;;;;;;5013090;28;20816;-66
2021/07/13 10:10:03;;;;;;;29.60;27.90;;;;;;;;;;5022186;28;20459;-65
2021/07/13 10:12:31;;;;;;;30.83;29.03;;;;;;;;;;5032272;28;20522;-68
2021/07/13 10:15:00;;;;;;;29.77;28.00;;;;;;;;;;5033356;28;20476;-65
2021/07/13 10:17:29;;;;;;;30.07;28.30;;;;;;;;;;5033027;28;20444;-66
2021/07/13 10:19:57;;;;;;;28.80;27.13;;;;;;;;;;5015526;28;20457;-68
2021/07/13 10:22:26;;;;;;;30.00;28.20;;;;;;;;;;5012718;28;20472;-66
2021/07/13 10:24:56;;;;;;;30.30;28.70;;;;;;;;;;5029958;28;21059;-66
2021/07/13 10:27:28;;;;;;;29.80;28.10;;;;;;;;;;5024433;28;20450;-66
2021/07/13 10:29:56;;;;;;;30.47;28.77;;;;;;;;;;5028269;28;20455;-66
2021/07/13 10:32:41;;;;;;;32.43;30.63;;;;;;;;;;5032016;28;20883;-65
2021/07/13 10:35:22;;;;;;;30.53;28.83;;;;;;;;;;5032791;28;20555;-66
2021/07/13 10:37:50;;;;;;;30.30;28.60;;;;;;;;;;5031550;28;20450;-66
2021/07/13 10:40:17;;;;;;;30.10;28.40;;;;;;;;;;5031530;28;20465;-66
2021/07/13 10:42:49;;;;;;;31.03;29.33;;;;;;;;;;5031781;28;20487;-68
2021/07/13 10:45:18;;;;;;;30.93;29.07;;;;;;;;;;5032217;28;20441;-66
2021/07/13 10:47:59;;;;;;;29.43;27.83;;;;;;;;;;5030068;28;20471;-67
2021/07/13 10:50:40;;;;;;;29.37;27.70;;;;;;;;;;5022291;28;20541;-65
2021/07/13 10:53:09;;;;;;;29.33;27.67;;;;;;;;;;5032186;28;20838;-66
2021/07/13 10:55:57;;;;;;;29.57;27.97;;;;;;;;;;5031506;28;20884;-65
2021/07/13 10:58:29;;;;;;;29.97;28.27;;;;;;;;;;5013887;28;20805;-65
2021/07/13 11:01:06;;;;;;;30.23;28.53;;;;;;;;;;5022033;28;20442;-66
2021/07/13 11:03:51;;;;;;;30.60;28.90;;;;;;;;;;5032160;28;20814;-67
2021/07/13 11:06:20;;;;;;;31.00;29.20;;;;;;;;;;5032167;28;20455;-66
2021/07/13 11:08:51;;;;;;;30.03;28.40;;;;;;;;;;5020375;28;20457;-66
2021/07/13 11:11:33;;;;;;;30.30;28.60;;;;;;;;;;5012131;28;20450;-66
2021/07/13 11:14:02;;;;;;;31.77;29.97;;;;;;;;;;5031202;28;20822;-65
2021/07/13 11:16:31;;;;;;;32.63;30.73;;;;;;;;;;5030309;28;21060;-67
2021/07/13 11:18:58;;;;;;;30.63;28.93;;;;;;;;;;5016899;28;20817;-66
2021/07/13 11:21:28;;;;;;;31.60;29.80;;;;;;;;;;5018836;28;20453;-68
2021/07/13 11:23:56;;;;;;;33.03;31.13;;;;;;;;;;5031206;28;20455;-66
2021/07/13 11:26:25;;;;;;;30.50;28.70;;;;;;;;;;5031841;28;20448;-66
2021/07/13 11:28:52;;;;;;;30.60;28.90;;;;;;;;;;5030035;28;20456;-68
2021/07/13 11:31:21;;;;;;;30.13;28.43;;;;;;;;;;5029369;28;20463;-68
2021/07/13 11:33:53;;;;;;;30.17;28.40;;;;;;;;;;5011606;28;21004;-68
2021/07/13 11:36:29;;;;;;;29.20;27.50;;;;;;;;;;5011596;28;20828;-66
2021/07/13 11:38:57;;;;;;;29.07;27.47;;;;;;;;;;5021388;28;20963;-67
2021/07/13 11:41:26;;;;;;;27.83;26.33;;;;;;;;;;5030933;28;20460;-65
2021/07/13 11:43:54;;;;;;;30.53;28.83;;;;;;;;;;5031783;28;20460;-66
2021/07/13 11:46:22;;;;;;;32.23;30.47;;;;;;;;;;5031198;28;20448;-65
2021/07/13 11:48:56;;;;;;;31.90;30.10;;;;;;;;;;5030063;28;20459;-65
2021/07/13 11:51:26;;;;;;;31.00;29.30;;;;;;;;;;5030890;28;20932;-65
2021/07/13 11:54:01;;;;;;;32.70;30.80;;;;;;;;;;5031703;28;21988;-64
2021/07/13 11:56:29;;;;;;;32.70;30.60;;;;;;;;;;5035870;28;20567;-66
2021/07/13 11:58:56;;;;;;;32.60;30.70;;;;;;;;;;5031544;28;20460;-65
2021/07/13 12:01:24;;;;;;;31.33;29.53;;;;;;;;;;5035469;28;20456;-65
2021/07/13 12:03:52;;;;;;;32.43;30.63;;;;;;;;;;5034875;28;20459;-65
2021/07/13 12:06:21;;;;;;;33.27;31.37;;;;;;;;;;5035257;28;20962;-65
2021/07/13 12:08:55;;;;;;;32.90;31.10;;;;;;;;;;5034630;28;20449;-67
2021/07/13 12:11:25;;;;;;;31.73;29.90;;;;;;;;;;5035061;28;20457;-65
2021/07/13 12:13:52;;;;;;;32.07;30.20;;;;;;;;;;5035182;28;20459;-65
2021/07/13 12:16:22;;;;;;;32.00;30.20;;;;;;;;;;5035485;28;20534;-65
2021/07/13 12:18:50;;;;;;;32.00;30.20;;;;;;;;;;5033989;28;20944;-65
2021/07/13 12:21:17;;;;;;;32.27;30.47;;;;;;;;;;5035074;28;20449;-67
2021/07/13 12:23:45;;;;;;;32.67;30.77;;;;;;;;;;5034081;28;21061;-64
2021/07/13 12:26:27;;;;;;;32.27;30.37;;;;;;;;;;5034346;28;20452;-64
2021/07/13 12:29:05;;;;;;;31.67;29.80;;;;;;;;;;5035182;28;20449;-64
2021/07/13 12:31:32;;;;;;;32.87;30.97;;;;;;;;;;5034500;28;20463;-64
2021/07/13 12:33:59;;;;;;;30.73;28.93;;;;;;;;;;5034048;28;21014;-67
2021/07/13 12:36:27;;;;;;;31.83;30.03;;;;;;;;;;5032426;28;20484;-65
2021/07/13 12:38:55;;;;;;;31.03;29.13;;;;;;;;;;5014998;28;20876;-66
2021/07/13 12:41:22;;;;;;;30.43;28.73;;;;;;;;;;5029092;28;20456;-64
2021/07/13 12:43:51;;;;;;;31.10;29.37;;;;;;;;;;5014616;28;20469;-67
2021/07/13 12:46:27;;;;;;;32.37;30.53;;;;;;;;;;5033566;28;20459;-65
2021/07/13 12:48:54;;;;;;;30.90;29.00;;;;;;;;;;5021977;28;20452;-66
2021/07/13 12:51:25;;;;;;;31.47;29.67;;;;;;;;;;5030976;28;20453;-66
2021/07/13 12:54:07;;;;;;;30.73;29.03;;;;;;;;;;5034105;28;20449;-65
2021/07/13 12:56:35;;;;;;;30.70;28.90;;;;;;;;;;5031289;28;20480;-65
2021/07/13 12:59:10;;;;;;;29.77;28.07;;;;;;;;;;5034811;28;20460;-65
2021/07/13 13:01:37;;;;;;;30.73;29.03;;;;;;;;;;5033746;28;20444;-65
2021/07/13 13:04:11;;;;;;;29.57;27.97;;;;;;;;;;5033824;28;20461;-65
2021/07/13 13:06:39;;;;;;;32.90;30.70;;;;;;;;;;5033590;28;20947;-66
2021/07/13 13:09:10;;;;;;;30.87;29.07;;;;;;;;;;5032435;28;20452;-67
2021/07/13 13:11:38;;;;;;;29.40;27.80;;;;;;;;;;5021912;28;20465;-65
2021/07/13 13:14:07;;;;;;;30.47;28.67;;;;;;;;;;5024665;28;20464;-66
2021/07/13 13:16:38;;;;;;;30.10;28.40;;;;;;;;;;5034266;28;20487;-65
2021/07/13 13:19:05;;;;;;;30.97;29.03;;;;;;;;;;5034344;28;20440;-67
2021/07/13 13:21:33;;;;;;;29.30;27.60;;;;;;;;;;5032218;28;20461;-67
2021/07/13 13:24:02;;;;;;;29.50;27.80;;;;;;;;;;5028197;28;20948;-68
2021/07/13 13:26:29;;;;;;;28.60;26.90;;;;;;;;;;5020378;28;20450;-66
2021/07/13 13:28:57;;;;;;;27.60;26.10;;;;;;;;;;5014114;28;20449;-65
2021/07/13 13:31:24;;;;;;;29.33;27.60;;;;;;;;;;5028713;28;20456;-65
2021/07/13 13:33:53;;;;;;;29.40;27.60;;;;;;;;;;5017717;28;20467;-65
2021/07/13 13:36:24;;;;;;;30.27;28.67;;;;;;;;;;5024561;28;20530;-65
2021/07/13 13:38:56;;;;;;;28.23;26.63;;;;;;;;;;5034071;28;20659;-68
2021/07/13 13:41:24;;;;;;;29.50;27.90;;;;;;;;;;5033321;28;20491;-65
2021/07/13 13:43:51;;;;;;;27.80;26.30;;;;;;;;;;5032000;28;20448;-65
2021/07/13 13:46:18;;;;;;;28.10;26.60;;;;;;;;;;5033323;28;20448;-65
2021/07/13 13:48:45;;;;;;;26.27;24.77;;;;;;;;;;5033236;28;20460;-65
2021/07/13 13:51:14;;;;;;;28.50;26.90;;;;;;;;;;5031456;28;20810;-65
2021/07/13 13:53:42;;;;;;;28.83;27.23;;;;;;;;;;5031908;28;20499;-67
2021/07/13 13:56:10;;;;;;;25.00;23.70;;;;;;;;;;5016499;28;20849;-68
2021/07/13 13:58:37;;;;;;;25.00;23.70;;;;;;;;;;5013699;28;20442;-65
2021/07/13 14:01:05;;;;;;;25.13;23.73;;;;;;;;;;5016968;28;20831;-65
2021/07/13 14:03:32;;;;;;;24.80;23.40;;;;;;;;;;5031574;28;20480;-65
2021/07/13 14:05:59;;;;;;;24.43;23.23;;;;;;;;;;5026699;28;20449;-65
2021/07/13 14:08:27;;;;;;;24.23;22.93;;;;;;;;;;5027253;28;20463;-65
2021/07/13 14:10:54;;;;;;;25.87;24.47;;;;;;;;;;5032998;28;20452;-64
2021/07/13 14:13:22;;;;;;;25.57;24.17;;;;;;;;;;5028089;28;20868;-67
2021/07/13 14:15:49;;;;;;;26.60;25.00;;;;;;;;;;5033194;28;20459;-65
2021/07/13 14:18:16;;;;;;;25.30;23.90;;;;;;;;;;5031421;28;20490;-66